createdAt,value
2023-04-09T00:00:15.731Z,5.80
2023-04-09T00:02:45.465Z,5.89
2023-04-09T00:05:17.744Z,5.83
2023-04-09T00:07:47.503Z,5.79
2023-04-09T00:10:17.043Z,5.70
2023-04-09T00:12:46.875Z,5.75
2023-04-09T00:15:27.756Z,5.74
2023-04-09T00:18:00.848Z,5.70
2023-04-09T00:20:32.984Z,5.69
2023-04-09T00:23:02.502Z,5.70
2023-04-09T00:25:32.113Z,5.86
2023-04-09T00:28:01.871Z,5.99
2023-04-09T00:30:31.858Z,6.06
2023-04-09T00:33:01.785Z,6.11
2023-04-09T00:35:33.960Z,6.11
2023-04-09T00:38:03.491Z,6.10
2023-04-09T00:40:33.237Z,6.09
2023-04-09T00:43:03.099Z,6.01
2023-04-09T00:45:33.120Z,6.05
2023-04-09T00:48:02.748Z,6.01
2023-04-09T00:50:34.844Z,6.04
2023-04-09T00:53:04.335Z,6.15
2023-04-09T00:55:34.470Z,6.08
2023-04-09T00:58:04.095Z,6.10
2023-04-09T01:00:33.768Z,6.04
2023-04-09T01:03:03.629Z,5.83
2023-04-09T01:05:42.045Z,5.81
2023-04-09T01:08:17.386Z,5.70
2023-04-09T01:10:50.741Z,5.68
2023-04-09T01:13:23.241Z,5.73
2023-04-09T01:15:57.171Z,5.67
2023-04-09T01:18:32.465Z,5.67
2023-04-09T01:21:08.314Z,5.62
2023-04-09T01:23:50.692Z,5.60
2023-04-09T01:26:28.867Z,5.53
2023-04-09T01:29:02.167Z,5.54
2023-04-09T01:31:33.964Z,5.56
2023-04-09T01:34:04.174Z,5.64
2023-04-09T01:36:34.827Z,5.66
2023-04-09T01:39:05.256Z,5.62
2023-04-09T01:41:36.606Z,5.61
2023-04-09T01:44:08.930Z,5.60
2023-04-09T01:46:39.739Z,5.57
2023-04-09T01:49:12.524Z,5.58
2023-04-09T01:51:42.134Z,5.58
2023-04-09T01:54:11.891Z,5.57
2023-04-09T01:56:45.488Z,5.58
2023-04-09T01:59:18.028Z,5.60
2023-04-09T02:01:49.826Z,5.57
2023-04-09T02:04:24.534Z,5.57
2023-04-09T02:06:58.906Z,5.59
2023-04-09T02:09:30.670Z,5.64
2023-04-09T02:12:01.883Z,5.62
2023-04-09T02:14:35.274Z,5.64
2023-04-09T02:17:05.090Z,5.66
2023-04-09T02:19:44.903Z,5.65
2023-04-09T02:22:14.978Z,5.53
2023-04-09T02:24:44.516Z,5.54
2023-04-09T02:27:14.089Z,5.46
2023-04-09T02:29:46.214Z,5.52
2023-04-09T02:32:15.684Z,5.52
2023-04-09T02:34:46.015Z,5.53
2023-04-09T02:37:15.529Z,5.56
2023-04-09T02:39:45.044Z,5.54
2023-04-09T02:42:14.541Z,5.60
2023-04-09T02:44:47.108Z,5.59
2023-04-09T02:47:16.626Z,5.61
2023-04-09T02:49:46.186Z,5.57
2023-04-09T02:52:15.739Z,5.58
2023-04-09T02:54:45.281Z,5.61
2023-04-09T02:57:14.791Z,5.43
2023-04-09T02:59:47.819Z,5.46
2023-04-09T03:02:17.587Z,5.44
2023-04-09T03:04:47.195Z,5.48
2023-04-09T03:07:16.658Z,5.47
2023-04-09T03:09:46.192Z,5.47
2023-04-09T03:12:15.707Z,5.47
2023-04-09T03:14:47.822Z,5.49
2023-04-09T03:17:17.360Z,5.43
2023-04-09T03:19:46.909Z,5.43
2023-04-09T03:22:16.382Z,5.48
2023-04-09T03:24:45.897Z,5.49
2023-04-09T03:27:15.443Z,5.56
2023-04-09T03:29:47.539Z,5.46
2023-04-09T03:32:18.977Z,5.47
2023-04-09T03:34:48.708Z,5.42
2023-04-09T03:37:18.296Z,5.47
2023-04-09T03:39:47.780Z,5.43
2023-04-09T03:42:17.246Z,5.45
2023-04-09T03:44:49.347Z,5.37
2023-04-09T03:47:18.831Z,5.42
2023-04-09T03:49:48.408Z,5.38
2023-04-09T03:52:17.926Z,5.47
2023-04-09T03:54:47.443Z,5.43
2023-04-09T03:57:17.098Z,5.37
2023-04-09T03:59:49.188Z,5.40
2023-04-09T04:02:18.714Z,5.47
2023-04-09T04:04:48.765Z,5.54
2023-04-09T04:07:18.285Z,5.48
2023-04-09T04:09:47.812Z,5.46
2023-04-09T04:12:17.330Z,5.45
2023-04-09T04:14:49.396Z,5.44
2023-04-09T04:17:18.906Z,5.45
2023-04-09T04:19:48.434Z,5.42
2023-04-09T04:22:17.932Z,5.40
2023-04-09T04:24:47.452Z,5.41
2023-04-09T04:27:16.968Z,5.40
2023-04-09T04:29:49.083Z,5.37
2023-04-09T04:32:18.623Z,5.36
2023-04-09T04:34:51.787Z,5.39
2023-04-09T04:37:21.305Z,5.45
2023-04-09T04:39:50.838Z,5.43
2023-04-09T04:42:20.741Z,5.41
2023-04-09T04:44:52.862Z,5.44
2023-04-09T04:47:22.474Z,5.43
2023-04-09T04:49:52.057Z,5.39
2023-04-09T04:52:21.645Z,5.38
2023-04-09T04:54:51.168Z,5.54
2023-04-09T04:57:20.621Z,5.46
2023-04-09T04:59:52.722Z,5.42
2023-04-09T05:02:22.330Z,5.44
2023-04-09T05:04:51.934Z,5.42
2023-04-09T05:07:21.409Z,5.46
2023-04-09T05:09:50.946Z,5.46
2023-04-09T05:12:20.660Z,5.57
2023-04-09T05:14:52.750Z,5.39
2023-04-09T05:17:22.352Z,5.38
2023-04-09T05:19:54.428Z,5.51
2023-04-09T05:22:23.937Z,5.49
2023-04-09T05:24:53.908Z,5.50
2023-04-09T05:27:25.925Z,5.42
2023-04-09T05:30:00.672Z,5.39
2023-04-09T05:32:30.626Z,5.39
2023-04-09T05:35:00.235Z,5.40
2023-04-09T05:37:29.725Z,5.36
2023-04-09T05:39:59.391Z,5.36
2023-04-09T05:42:28.871Z,5.37
2023-04-09T05:45:00.945Z,5.40
2023-04-09T05:47:30.458Z,5.33
2023-04-09T05:50:00.102Z,5.40
2023-04-09T05:52:29.727Z,5.49
2023-04-09T05:54:59.211Z,5.51
2023-04-09T05:57:30.586Z,5.52
2023-04-09T06:00:02.648Z,5.57
2023-04-09T06:02:32.274Z,5.61
2023-04-09T06:05:04.543Z,5.71
2023-04-09T06:07:34.080Z,5.70
2023-04-09T06:10:03.716Z,5.73
2023-04-09T06:12:33.237Z,5.73
2023-04-09T06:15:06.115Z,5.70
2023-04-09T06:17:35.771Z,5.68
2023-04-09T06:20:05.653Z,5.71
2023-04-09T06:22:35.256Z,5.72
2023-04-09T06:25:04.812Z,5.79
2023-04-09T06:27:34.324Z,5.76
2023-04-09T06:30:07.010Z,5.77
2023-04-09T06:32:46.883Z,5.86
2023-04-09T06:35:16.888Z,6.01
2023-04-09T06:37:46.447Z,5.96
2023-04-09T06:40:18.762Z,5.89
2023-04-09T06:42:49.148Z,5.88
2023-04-09T06:45:21.297Z,5.80
2023-04-09T06:47:50.819Z,5.84
2023-04-09T06:50:21.020Z,5.82
2023-04-09T06:52:50.516Z,5.73
2023-04-09T06:55:20.256Z,5.71
2023-04-09T06:57:49.740Z,5.73
2023-04-09T07:00:23.167Z,5.79
2023-04-09T07:02:53.615Z,5.83
2023-04-09T07:05:23.325Z,5.86
2023-04-09T07:07:52.853Z,5.83
2023-04-09T07:10:22.346Z,5.87
2023-04-09T07:12:51.926Z,5.88
2023-04-09T07:15:23.978Z,5.92
2023-04-09T07:17:53.592Z,5.91
2023-04-09T07:20:23.188Z,5.98
2023-04-09T07:22:52.794Z,5.95
2023-04-09T07:25:23.014Z,6.02
2023-04-09T07:27:52.548Z,6.12
2023-04-09T07:30:24.655Z,6.09
2023-04-09T07:32:54.567Z,6.14
2023-04-09T07:35:24.371Z,6.33
2023-04-09T07:37:54.062Z,6.24
2023-04-09T07:40:23.576Z,6.29
2023-04-09T07:42:54.007Z,6.32
2023-04-09T07:45:26.149Z,6.43
2023-04-09T07:47:55.676Z,6.37
2023-04-09T07:50:25.616Z,6.41
2023-04-09T07:52:55.183Z,6.44
2023-04-09T07:55:24.671Z,6.61
2023-04-09T07:57:54.849Z,6.68
2023-04-09T08:00:27.075Z,6.73
2023-04-09T08:02:57.677Z,6.71
2023-04-09T08:05:28.462Z,6.86
2023-04-09T08:07:57.934Z,6.79
2023-04-09T08:10:27.482Z,6.78
2023-04-09T08:12:56.988Z,6.77
2023-04-09T08:15:29.180Z,6.91
2023-04-09T08:17:58.674Z,6.83
2023-04-09T08:20:29.487Z,6.86
2023-04-09T08:22:59.373Z,6.91
2023-04-09T08:25:29.114Z,6.95
2023-04-09T08:27:58.589Z,7.12
2023-04-09T08:30:30.829Z,7.24
2023-04-09T08:33:00.422Z,7.08
2023-04-09T08:35:30.955Z,6.97
2023-04-09T08:38:01.824Z,7.05
2023-04-09T08:40:31.308Z,7.06
2023-04-09T08:43:02.128Z,7.00
2023-04-09T08:45:34.250Z,6.99
2023-04-09T08:48:05.665Z,7.02
2023-04-09T08:50:35.468Z,7.10
2023-04-09T08:53:06.214Z,7.10
2023-04-09T08:55:37.507Z,7.04
2023-04-09T08:58:07.765Z,7.07
2023-04-09T09:00:40.829Z,7.14
2023-04-09T09:03:13.222Z,7.15
2023-04-09T09:05:44.397Z,7.16
2023-04-09T09:08:14.954Z,7.13
2023-04-09T09:10:46.123Z,6.85
2023-04-09T09:13:23.731Z,6.78
2023-04-09T09:15:57.627Z,6.75
2023-04-09T09:18:41.252Z,6.84
2023-04-09T09:21:14.695Z,6.82
2023-04-09T09:23:44.724Z,6.86
2023-04-09T09:26:16.589Z,6.97
2023-04-09T09:28:47.023Z,6.96
2023-04-09T09:31:20.610Z,7.06
2023-04-09T09:33:51.338Z,6.97
2023-04-09T09:36:34.458Z,6.89
2023-04-09T09:39:10.334Z,6.80
2023-04-09T09:41:40.247Z,7.09
2023-04-09T09:44:10.159Z,7.21
2023-04-09T09:46:43.358Z,7.22
2023-04-09T09:49:12.808Z,7.16
2023-04-09T09:51:42.848Z,7.10
2023-04-09T09:54:13.649Z,7.21
2023-04-09T09:56:44.146Z,7.26
2023-04-09T09:59:17.911Z,7.39
2023-04-09T10:01:51.256Z,7.46
2023-04-09T10:04:23.092Z,7.52
2023-04-09T10:06:53.674Z,7.63
2023-04-09T10:09:24.332Z,7.68
2023-04-09T10:11:53.996Z,7.72
2023-04-09T10:14:24.516Z,7.70
2023-04-09T10:16:56.784Z,7.75
2023-04-09T10:19:27.272Z,7.68
2023-04-09T10:22:00.553Z,7.70
2023-04-09T10:24:30.125Z,7.70
2023-04-09T10:27:16.467Z,7.61
2023-04-09T10:29:47.885Z,7.60
2023-04-09T10:32:26.705Z,7.65
2023-04-09T10:35:00.847Z,7.54
2023-04-09T10:37:30.998Z,7.36
2023-04-09T10:40:00.907Z,7.30
2023-04-09T10:42:34.244Z,7.37
2023-04-09T10:45:14.399Z,7.56
2023-04-09T10:47:48.602Z,7.59
2023-04-09T10:50:20.291Z,7.66
2023-04-09T10:52:50.346Z,7.80
2023-04-09T10:55:44.580Z,7.97
2023-04-09T10:58:14.792Z,8.12
2023-04-09T11:00:45.502Z,8.22
2023-04-09T11:03:30.621Z,8.23
2023-04-09T11:06:06.253Z,8.24
2023-04-09T11:08:36.724Z,8.56
2023-04-09T11:11:06.317Z,9.37
2023-04-09T11:13:36.235Z,9.59
2023-04-09T11:16:07.441Z,9.44
2023-04-09T11:18:39.746Z,9.81
2023-04-09T11:21:10.365Z,9.12
2023-04-09T11:23:39.865Z,8.70
2023-04-09T11:26:12.395Z,8.69
2023-04-09T11:28:44.056Z,8.75
2023-04-09T11:31:13.631Z,8.91
2023-04-09T11:33:48.846Z,9.15
2023-04-09T11:36:18.341Z,9.25
2023-04-09T11:38:51.313Z,9.35
2023-04-09T11:41:21.184Z,9.35
2023-04-09T11:43:50.827Z,9.40
2023-04-09T11:46:21.656Z,9.40
2023-04-09T11:48:53.935Z,9.43
2023-04-09T11:51:23.729Z,9.46
2023-04-09T11:53:53.345Z,9.62
2023-04-09T11:56:23.366Z,9.63
2023-04-09T11:58:53.044Z,9.57
2023-04-09T12:01:25.055Z,9.68
2023-04-09T12:03:58.721Z,9.83
2023-04-09T12:06:29.925Z,9.83
2023-04-09T12:09:00.215Z,9.77
2023-04-09T12:11:32.039Z,9.88
2023-04-09T12:14:02.972Z,9.88
2023-04-09T12:16:34.155Z,9.97
2023-04-09T12:19:07.149Z,10.04
2023-04-09T12:21:49.840Z,10.23
2023-04-09T12:24:20.239Z,10.35
2023-04-09T12:26:50.524Z,10.49
2023-04-09T12:29:21.136Z,10.38
2023-04-09T12:31:50.960Z,10.75
2023-04-09T12:34:23.051Z,11.47
2023-04-09T12:36:52.593Z,11.85
2023-04-09T12:39:22.062Z,12.18
2023-04-09T12:41:51.538Z,12.19
2023-04-09T12:44:21.035Z,12.21
2023-04-09T12:46:51.142Z,12.46
2023-04-09T12:49:23.268Z,12.73
2023-04-09T12:51:52.795Z,13.05
2023-04-09T12:54:22.341Z,13.28
2023-04-09T12:56:51.933Z,12.98
2023-04-09T12:59:21.449Z,12.89
2023-04-09T13:01:50.999Z,13.39
2023-04-09T13:04:23.228Z,13.43
2023-04-09T13:06:53.143Z,13.74
2023-04-09T13:09:22.684Z,13.16
2023-04-09T13:11:52.243Z,13.37
2023-04-09T13:14:21.797Z,13.69
2023-04-09T13:16:52.755Z,13.93
2023-04-09T13:19:25.043Z,14.29
2023-04-09T13:21:54.687Z,14.10
2023-04-09T13:24:24.234Z,14.40
2023-04-09T13:26:54.161Z,14.52
2023-04-09T13:29:23.675Z,14.45
2023-04-09T13:31:53.229Z,14.80
2023-04-09T13:34:25.455Z,14.80
2023-04-09T13:36:55.121Z,15.08
2023-04-09T13:39:24.607Z,14.96
2023-04-09T13:41:55.382Z,15.16
2023-04-09T13:44:25.145Z,15.05
2023-04-09T13:46:54.621Z,15.03
2023-04-09T13:49:27.440Z,14.87
2023-04-09T13:51:56.960Z,14.43
2023-04-09T13:54:26.501Z,14.50
2023-04-09T13:56:56.223Z,14.45
2023-04-09T13:59:25.755Z,14.39
2023-04-09T14:01:55.409Z,14.27
2023-04-09T14:04:27.835Z,14.58
2023-04-09T14:06:57.586Z,14.84
2023-04-09T14:09:27.151Z,15.22
2023-04-09T14:11:57.538Z,15.01
2023-04-09T14:14:27.110Z,14.44
2023-04-09T14:16:56.678Z,14.59
2023-04-09T14:19:28.823Z,14.63
2023-04-09T14:21:58.556Z,14.83
2023-04-09T14:24:28.137Z,14.56
2023-04-09T14:26:57.767Z,14.65
2023-04-09T14:29:27.415Z,15.05
2023-04-09T14:31:57.382Z,14.68
2023-04-09T14:34:29.575Z,14.05
2023-04-09T14:36:59.160Z,14.16
2023-04-09T14:39:28.702Z,14.43
2023-04-09T14:41:58.239Z,14.24
2023-04-09T14:44:28.234Z,13.82
2023-04-09T14:46:58.013Z,13.90
2023-04-09T14:49:30.296Z,13.86
2023-04-09T14:51:59.842Z,14.23
2023-04-09T14:54:31.439Z,14.52
2023-04-09T14:57:02.790Z,14.41
2023-04-09T14:59:32.352Z,14.37
2023-04-09T15:02:02.106Z,14.28
2023-04-09T15:04:34.424Z,14.48
2023-04-09T15:07:03.979Z,14.76
2023-04-09T15:09:33.480Z,14.98
2023-04-09T15:12:03.500Z,14.96
2023-04-09T15:14:33.717Z,14.98
2023-04-09T15:17:03.599Z,15.19
2023-04-09T15:19:36.262Z,15.22
2023-04-09T15:22:05.970Z,15.46
2023-04-09T15:24:35.493Z,14.98
2023-04-09T15:27:04.987Z,15.02
2023-04-09T15:29:35.431Z,14.94
2023-04-09T15:32:05.113Z,14.71
2023-04-09T15:34:37.330Z,14.84
2023-04-09T15:37:06.882Z,14.93
2023-04-09T15:39:36.883Z,14.96
2023-04-09T15:42:08.764Z,14.53
2023-04-09T15:44:39.552Z,14.49
2023-04-09T15:47:09.182Z,14.21
2023-04-09T15:49:41.383Z,14.11
2023-04-09T15:52:10.982Z,14.23
2023-04-09T15:54:40.572Z,14.39
2023-04-09T15:57:10.093Z,14.07
2023-04-09T15:59:39.679Z,14.16
2023-04-09T16:02:09.252Z,14.07
2023-04-09T16:04:41.459Z,13.60
2023-04-09T16:07:11.119Z,13.50
2023-04-09T16:09:40.624Z,13.48
2023-04-09T16:12:10.113Z,13.34
2023-04-09T16:14:40.490Z,13.41
2023-04-09T16:17:10.387Z,13.47
2023-04-09T16:19:42.603Z,13.31
2023-04-09T16:22:12.766Z,13.05
2023-04-09T16:24:42.297Z,13.10
2023-04-09T16:27:13.170Z,13.00
2023-04-09T16:29:42.685Z,12.88
2023-04-09T16:32:12.277Z,12.83
2023-04-09T16:34:44.393Z,12.46
2023-04-09T16:37:13.868Z,12.49
2023-04-09T16:39:43.398Z,12.65
2023-04-09T16:42:13.103Z,12.25
2023-04-09T16:44:42.645Z,11.99
2023-04-09T16:47:12.131Z,11.76
2023-04-09T16:49:44.264Z,11.65
2023-04-09T16:52:13.780Z,11.51
2023-04-09T16:54:43.374Z,11.57
2023-04-09T16:57:12.973Z,11.54
2023-04-09T16:59:43.212Z,11.39
2023-04-09T17:02:12.879Z,11.26
2023-04-09T17:04:45.009Z,11.09
2023-04-09T17:07:14.464Z,11.08
2023-04-09T17:09:43.951Z,11.03
2023-04-09T17:12:13.659Z,11.01
2023-04-09T17:14:44.522Z,10.88
2023-04-09T17:17:14.363Z,10.76
2023-04-09T17:19:46.523Z,10.57
2023-04-09T17:22:17.970Z,10.51
2023-04-09T17:24:47.708Z,10.40
2023-04-09T17:27:17.176Z,10.43
2023-04-09T17:29:46.769Z,10.33
2023-04-09T17:32:16.349Z,10.23
2023-04-09T17:34:49.731Z,10.12
2023-04-09T17:37:19.295Z,10.11
2023-04-09T17:39:48.846Z,10.00
2023-04-09T17:42:19.716Z,9.85
2023-04-09T17:44:49.239Z,9.81
2023-04-09T17:47:18.881Z,9.79
2023-04-09T17:49:50.958Z,9.73
2023-04-09T17:52:20.594Z,9.65
2023-04-09T17:54:51.066Z,9.57
2023-04-09T17:57:20.624Z,9.52
2023-04-09T17:59:50.133Z,9.48
2023-04-09T18:02:22.218Z,9.41
2023-04-09T18:04:55.024Z,9.37
2023-04-09T18:07:24.663Z,9.29
2023-04-09T18:09:54.145Z,9.25
2023-04-09T18:12:23.600Z,9.16
2023-04-09T18:14:53.222Z,9.16
2023-04-09T18:17:22.827Z,9.09
2023-04-09T18:19:58.486Z,9.06
2023-04-09T18:22:28.160Z,8.94
2023-04-09T18:24:57.850Z,8.92
2023-04-09T18:27:27.477Z,8.88
2023-04-09T18:29:57.046Z,8.96
2023-04-09T18:32:26.963Z,8.83
2023-04-09T18:34:59.111Z,8.78
2023-04-09T18:37:29.295Z,8.73
2023-04-09T18:40:00.646Z,8.69
2023-04-09T18:42:31.463Z,8.63
2023-04-09T18:45:01.000Z,8.57
2023-04-09T18:47:30.538Z,8.45
2023-04-09T18:50:02.707Z,8.37
2023-04-09T18:52:32.419Z,8.32
2023-04-09T18:55:01.960Z,8.24
2023-04-09T18:57:33.552Z,8.15
2023-04-09T19:00:04.076Z,8.09
2023-04-09T19:02:33.723Z,8.07
2023-04-09T19:05:07.320Z,8.09
2023-04-09T19:07:37.849Z,8.00
2023-04-09T19:10:08.013Z,7.97
2023-04-09T19:12:37.526Z,7.94
2023-04-09T19:15:07.605Z,7.89
2023-04-09T19:17:37.136Z,7.87
2023-04-09T19:20:10.695Z,7.79
2023-04-09T19:22:40.244Z,7.77
2023-04-09T19:25:10.925Z,7.80
2023-04-09T19:27:41.515Z,7.78
2023-04-09T19:30:11.961Z,7.80
2023-04-09T19:32:41.846Z,7.78
2023-04-09T19:35:14.053Z,7.74
2023-04-09T19:37:43.800Z,7.68
2023-04-09T19:40:15.661Z,7.63
2023-04-09T19:42:45.294Z,7.55
2023-04-09T19:45:15.478Z,7.51
2023-04-09T19:47:44.984Z,7.50
2023-04-09T19:50:17.360Z,7.50
2023-04-09T19:52:47.184Z,7.43
2023-04-09T19:55:16.770Z,7.38
2023-04-09T19:57:46.353Z,7.38
2023-04-09T20:00:17.411Z,7.37
2023-04-09T20:02:47.104Z,7.38
2023-04-09T20:05:21.133Z,7.32
2023-04-09T20:07:50.635Z,7.26
2023-04-09T20:10:20.628Z,7.24
2023-04-09T20:12:50.657Z,7.21
2023-04-09T20:15:20.977Z,7.12
2023-04-09T20:17:50.929Z,7.07
2023-04-09T20:20:23.092Z,7.06
2023-04-09T20:22:56.468Z,7.00
2023-04-09T20:25:27.981Z,6.97
2023-04-09T20:27:58.240Z,6.88
2023-04-09T20:30:27.758Z,6.89
2023-04-09T20:32:57.653Z,6.83
2023-04-09T20:35:29.814Z,6.87
2023-04-09T20:37:59.313Z,6.75
2023-04-09T20:40:30.791Z,6.73
2023-04-09T20:43:00.656Z,6.68
2023-04-09T20:45:30.205Z,6.62
2023-04-09T20:47:59.811Z,6.64
2023-04-09T20:50:32.869Z,6.59
2023-04-09T20:53:02.435Z,6.57
2023-04-09T20:55:32.535Z,6.47
2023-04-09T20:58:02.982Z,6.50
2023-04-09T21:00:32.496Z,6.44
2023-04-09T21:03:02.220Z,6.46
2023-04-09T21:05:34.902Z,6.39
2023-04-09T21:08:04.440Z,6.40
2023-04-09T21:10:33.943Z,6.35
2023-04-09T21:13:03.428Z,6.31
2023-04-09T21:15:32.954Z,6.34
2023-04-09T21:18:02.665Z,6.32
2023-04-09T21:20:37.163Z,6.33
2023-04-09T21:23:07.549Z,6.25
2023-04-09T21:25:37.288Z,6.29
2023-04-09T21:28:07.016Z,6.31
2023-04-09T21:30:37.653Z,6.23
2023-04-09T21:33:08.927Z,6.21
2023-04-09T21:35:41.687Z,6.21
2023-04-09T21:38:11.381Z,6.21
2023-04-09T21:40:40.929Z,6.20
2023-04-09T21:43:10.415Z,6.15
2023-04-09T21:45:40.330Z,6.11
2023-04-09T21:48:09.983Z,6.16
2023-04-09T21:50:42.095Z,6.06
2023-04-09T21:53:11.796Z,6.08
2023-04-09T21:55:41.324Z,5.95
2023-04-09T21:58:12.005Z,5.91
2023-04-09T22:00:41.550Z,5.84
2023-04-09T22:03:11.344Z,5.79
2023-04-09T22:05:43.556Z,5.86
2023-04-09T22:08:13.329Z,5.83
2023-04-09T22:10:42.929Z,5.86
2023-04-09T22:13:12.466Z,5.89
2023-04-09T22:15:42.154Z,5.83
2023-04-09T22:18:11.696Z,5.85
2023-04-09T22:20:43.814Z,5.84
2023-04-09T22:23:13.274Z,5.85
2023-04-09T22:25:42.831Z,5.73
2023-04-09T22:28:12.355Z,5.79
2023-04-09T22:30:42.750Z,5.73
2023-04-09T22:33:12.281Z,5.67
2023-04-09T22:35:44.358Z,5.74
2023-04-09T22:38:13.993Z,5.71
2023-04-09T22:40:43.467Z,5.69
2023-04-09T22:43:12.961Z,5.70
2023-04-09T22:45:42.496Z,5.63
2023-04-09T22:48:12.469Z,5.61
2023-04-09T22:50:44.551Z,5.64
2023-04-09T22:53:18.672Z,5.59
2023-04-09T22:55:51.228Z,5.56
2023-04-09T22:58:21.195Z,5.49
2023-04-09T23:00:51.041Z,5.46
2023-04-09T23:03:20.883Z,5.53
2023-04-09T23:05:53.162Z,5.47
2023-04-09T23:08:22.683Z,5.39
2023-04-09T23:10:52.173Z,5.46
2023-04-09T23:13:21.678Z,5.37
2023-04-09T23:15:51.222Z,5.38
2023-04-09T23:18:20.704Z,5.41
2023-04-09T23:20:52.809Z,5.39
2023-04-09T23:23:22.312Z,5.41
2023-04-09T23:25:51.794Z,5.36
2023-04-09T23:28:21.317Z,5.35
2023-04-09T23:30:51.272Z,5.41
2023-04-09T23:33:21.101Z,5.39
2023-04-09T23:35:53.251Z,5.32
2023-04-09T23:38:22.788Z,5.38
2023-04-09T23:40:52.453Z,5.32
2023-04-09T23:43:22.009Z,5.33
2023-04-09T23:45:51.586Z,5.36
2023-04-09T23:48:21.228Z,5.44
2023-04-09T23:50:53.287Z,5.53
2023-04-09T23:53:22.745Z,5.43
2023-04-09T23:55:52.818Z,5.34
2023-04-09T23:58:23.263Z,5.27
